Time;durP1;ratioP1;P1;durP2;ratioP2;P2;SDS_P1;SDS_P2;PMS_P1;PMS_P2;Temp;Humidity;BMP_temperature;BMP_pressure;BME280_temperature;BME280_humidity;BME280_pressure;Samples;Min_cycle;Max_cycle;Signal;HPM_P1;HPM_P2
2022/06/24 00:00:55;;;;;;;46.43;29.53;;;20.50;99.90;;;;;;5038358;28;20185;-62
2022/06/24 00:03:45;;;;;;;40.33;29.83;;;20.50;99.90;;;;;;5046545;28;20201;-63
2022/06/24 00:06:44;;;;;;;46.03;31.47;;;20.50;99.90;;;;;;5048202;28;20208;-63
2022/06/24 00:09:33;;;;;;;41.33;31.37;;;20.40;99.90;;;;;;5048264;28;20197;-62
2022/06/24 00:12:26;;;;;;;53.40;35.07;;;20.40;99.90;;;;;;5040918;28;20672;-62
2022/06/24 00:15:16;;;;;;;62.43;38.67;;;20.40;99.90;;;;;;5048088;28;20200;-62
2022/06/24 00:18:13;;;;;;;58.27;39.27;;;20.40;99.90;;;;;;5045317;28;20303;-62
2022/06/24 00:21:01;;;;;;;65.80;42.57;;;20.40;99.90;;;;;;5044488;28;20196;-62
2022/06/24 00:23:50;;;;;;;65.47;42.17;;;20.30;99.90;;;;;;5046848;28;20193;-62
2022/06/24 00:26:42;;;;;;;72.50;43.13;;;20.20;99.90;;;;;;5046051;28;20201;-62
2022/06/24 00:29:34;;;;;;;74.50;43.67;;;20.20;99.90;;;;;;5047797;28;20288;-62
2022/06/24 00:32:31;;;;;;;79.80;47.63;;;20.20;99.90;;;;;;5040504;28;20209;-62
2022/06/24 00:35:20;;;;;;;85.47;51.10;;;20.10;99.90;;;;;;5046641;28;20604;-62
2022/06/24 00:38:27;;;;;;;85.77;51.17;;;20.10;99.90;;;;;;5046708;28;20270;-62
2022/06/24 00:41:16;;;;;;;93.20;54.90;;;20.00;99.90;;;;;;5043921;28;20189;-62
2022/06/24 00:44:08;;;;;;;99.57;54.87;;;20.00;99.90;;;;;;5051879;28;20208;-62
2022/06/24 00:47:01;;;;;;;100.53;57.60;;;20.00;99.90;;;;;;5051835;28;20251;-61
2022/06/24 00:49:52;;;;;;;110.63;59.60;;;20.00;99.90;;;;;;5049673;28;20202;-62
2022/06/24 00:52:40;;;;;;;101.10;56.67;;;20.00;99.90;;;;;;5048935;28;20216;-61
2022/06/24 00:55:31;;;;;;;94.63;52.57;;;20.00;99.90;;;;;;5053797;28;20263;-61
2022/06/24 00:58:20;;;;;;;95.37;54.97;;;20.00;99.90;;;;;;5048420;28;20216;-61
2022/06/24 01:01:10;;;;;;;97.30;56.77;;;20.00;99.90;;;;;;5051710;28;20205;-61
2022/06/24 01:04:02;;;;;;;107.43;59.20;;;19.90;99.90;;;;;;5052732;28;20201;-61
2022/06/24 01:06:51;;;;;;;102.57;55.03;;;19.90;99.90;;;;;;5052459;28;20307;-61
2022/06/24 01:09:40;;;;;;;96.90;56.47;;;19.80;99.90;;;;;;5051571;28;20201;-61
2022/06/24 01:12:31;;;;;;;105.00;57.40;;;19.80;99.90;;;;;;5050369;28;20701;-61
2022/06/24 01:15:20;;;;;;;97.10;54.80;;;19.70;99.90;;;;;;5050879;28;20545;-61
2022/06/24 01:18:08;;;;;;;92.90;53.90;;;19.70;99.90;;;;;;5051647;28;20291;-61
2022/06/24 01:21:00;;;;;;;88.63;53.03;;;19.60;99.90;;;;;;5055464;28;20208;-61
2022/06/24 01:23:50;;;;;;;90.57;53.27;;;19.50;99.90;;;;;;5042567;28;21016;-61
2022/06/24 01:26:42;;;;;;;107.27;57.80;;;19.50;99.90;;;;;;5055071;28;20276;-61
2022/06/24 01:29:19;;;;;;;108.53;56.47;;;19.50;99.90;;;;;;5044320;28;20201;-61
2022/06/24 01:31:49;;;;;;;106.40;55.60;;;19.60;99.90;;;;;;5054953;28;21205;-61
2022/06/24 01:34:18;;;;;;;98.43;54.33;;;19.60;99.90;;;;;;5049968;28;20543;-61
2022/06/24 01:36:47;;;;;;;96.83;54.13;;;19.60;99.90;;;;;;5042549;28;20673;-61
2022/06/24 01:39:16;;;;;;;103.47;54.33;;;19.60;99.90;;;;;;5048306;28;20201;-61
2022/06/24 01:41:45;;;;;;;103.10;56.30;;;19.60;99.90;;;;;;5043238;28;20250;-61
2022/06/24 01:44:13;;;;;;;98.77;54.87;;;19.60;99.90;;;;;;5055080;28;20200;-61
2022/06/24 01:46:41;;;;;;;95.83;52.70;;;19.50;99.90;;;;;;5055503;28;20216;-61
2022/06/24 01:49:10;;;;;;;90.73;50.17;;;19.50;99.90;;;;;;5054378;28;20240;-61
2022/06/24 01:51:42;;;;;;;91.20;51.97;;;19.40;99.90;;;;;;5055412;28;20193;-61
2022/06/24 01:54:10;;;;;;;89.37;49.27;;;19.30;99.90;;;;;;5041798;28;20208;-61
2022/06/24 01:56:40;;;;;;;85.17;47.93;;;19.30;99.90;;;;;;5055285;28;20201;-61
2022/06/24 01:59:14;;;;;;;89.97;51.50;;;19.30;99.90;;;;;;5054881;28;20587;-61
2022/06/24 02:01:44;;;;;;;92.40;52.17;;;19.30;99.90;;;;;;5054816;28;20540;-61
2022/06/24 02:04:14;;;;;;;95.97;54.07;;;19.30;99.90;;;;;;5060808;28;20216;-61
2022/06/24 02:06:42;;;;;;;105.27;57.80;;;19.30;99.90;;;;;;5047648;28;20639;-61
2022/06/24 02:09:11;;;;;;;102.53;57.20;;;19.40;99.90;;;;;;5048391;28;20641;-61
2022/06/24 02:14:26;;;;;;;88.80;50.87;;;19.30;99.90;;;;;;5051884;28;20211;-61
2022/06/24 02:16:55;;;;;;;90.60;51.57;;;19.30;99.90;;;;;;5051914;28;20192;-61
2022/06/24 02:19:23;;;;;;;90.20;52.60;;;19.20;99.90;;;;;;5054016;28;20274;-61
2022/06/24 02:21:52;;;;;;;86.33;50.83;;;19.20;99.90;;;;;;5053991;28;20208;-61
2022/06/24 02:24:20;;;;;;;92.83;53.57;;;19.20;99.90;;;;;;5052090;28;20548;-61
2022/06/24 02:26:50;;;;;;;90.93;54.33;;;19.20;99.90;;;;;;5049579;28;20201;-61
2022/06/24 02:29:18;;;;;;;94.63;54.23;;;19.20;99.90;;;;;;5050394;28;20201;-61
2022/06/24 02:31:48;;;;;;;95.43;52.87;;;19.20;99.90;;;;;;5051896;28;20204;-61
2022/06/24 02:34:16;;;;;;;92.50;52.13;;;19.20;99.90;;;;;;5054695;28;20248;-61
2022/06/24 02:36:46;;;;;;;90.00;53.00;;;19.20;99.90;;;;;;5046645;28;20197;-61
2022/06/24 02:39:14;;;;;;;91.00;51.97;;;19.10;99.90;;;;;;5050615;28;20613;-61
2022/06/24 02:41:43;;;;;;;91.60;51.27;;;19.10;99.90;;;;;;5053129;28;20604;-61
2022/06/24 02:44:13;;;;;;;85.20;49.07;;;19.10;99.90;;;;;;5051251;28;20256;-61
2022/06/24 02:46:41;;;;;;;86.53;49.07;;;19.10;99.90;;;;;;5053898;28;20652;-61
2022/06/24 02:49:09;;;;;;;85.07;48.47;;;19.10;99.90;;;;;;5047100;28;20247;-61
2022/06/24 02:51:38;;;;;;;80.53;48.23;;;19.10;99.90;;;;;;5043571;28;20192;-61
2022/06/24 02:54:06;;;;;;;81.87;46.13;;;19.10;99.90;;;;;;5051415;28;20217;-61
2022/06/24 02:57:26;;;;;;;70.67;42.90;;;19.00;99.90;;;;;;5049494;28;20205;-60
2022/06/24 02:59:57;;;;;;;52.97;34.33;;;19.00;99.90;;;;;;5054013;28;20204;-61
2022/06/24 03:06:16;;;;;;;42.27;26.37;;;18.80;99.90;;;;;;5050683;28;20703;-60
2022/06/24 03:08:45;;;;;;;50.57;29.10;;;18.80;99.90;;;;;;5053757;28;20254;-60
2022/06/24 03:11:14;;;;;;;47.50;27.07;;;18.70;99.90;;;;;;5054213;28;20204;-61
2022/06/24 03:13:42;;;;;;;45.00;26.23;;;18.70;99.90;;;;;;5053490;28;20216;-61
2022/06/24 03:16:12;;;;;;;40.73;24.93;;;18.70;99.90;;;;;;5052568;28;20200;-61
2022/06/24 03:18:40;;;;;;;38.23;23.47;;;18.60;99.90;;;;;;5049321;28;20201;-61
2022/06/24 03:21:09;;;;;;;38.43;23.23;;;18.50;99.90;;;;;;5053523;28;20212;-61
2022/06/24 03:23:37;;;;;;;38.37;24.83;;;18.50;99.90;;;;;;5053154;28;20247;-61
2022/06/24 03:26:05;;;;;;;40.87;24.90;;;18.50;99.90;;;;;;5053545;28;20228;-61
2022/06/24 03:28:34;;;;;;;47.17;26.03;;;18.50;99.90;;;;;;5053223;28;20227;-61
2022/06/24 03:31:02;;;;;;;40.03;24.40;;;18.50;99.90;;;;;;5048122;28;20645;-61
2022/06/24 03:33:32;;;;;;;45.17;27.43;;;18.50;99.90;;;;;;5052835;28;20208;-61
2022/06/24 03:36:09;;;;;;;50.27;28.07;;;18.50;99.90;;;;;;5054031;28;20713;-61
2022/06/24 03:38:37;;;;;;;48.40;27.40;;;18.50;99.90;;;;;;5053382;28;20222;-61
2022/06/24 03:41:12;;;;;;;62.07;32.63;;;18.50;99.90;;;;;;5053427;28;20657;-61
2022/06/24 03:43:42;;;;;;;59.23;31.37;;;18.50;99.90;;;;;;5052805;28;20212;-61
2022/06/24 03:46:12;;;;;;;58.30;30.87;;;18.50;99.90;;;;;;5048426;28;20197;-61
2022/06/24 03:48:42;;;;;;;64.40;34.20;;;18.50;99.90;;;;;;5040149;28;20233;-61
2022/06/24 03:51:10;;;;;;;68.20;33.47;;;18.50;99.90;;;;;;5052133;28;20203;-61
2022/06/24 03:53:39;;;;;;;63.60;32.67;;;18.40;99.90;;;;;;5052402;28;20231;-61
2022/06/24 03:56:10;;;;;;;66.10;34.87;;;18.50;99.90;;;;;;5052981;28;20624;-61
2022/06/24 03:58:38;;;;;;;64.97;34.47;;;18.40;99.90;;;;;;5051492;28;20610;-61
2022/06/24 04:01:07;;;;;;;60.17;35.30;;;18.40;99.90;;;;;;5052812;28;20639;-61
2022/06/24 04:03:36;;;;;;;64.80;34.53;;;18.40;99.90;;;;;;5051737;28;20213;-61
2022/06/24 04:06:06;;;;;;;73.63;35.27;;;18.40;99.90;;;;;;5053163;28;20252;-61
2022/06/24 04:08:35;;;;;;;62.57;34.47;;;18.40;99.90;;;;;;5050144;28;20214;-61
2022/06/24 04:11:10;;;;;;;62.30;32.47;;;18.40;99.90;;;;;;5043326;28;20201;-61
2022/06/24 04:13:38;;;;;;;61.83;28.73;;;18.40;99.90;;;;;;5052551;28;20221;-61
2022/06/24 04:16:07;;;;;;;44.67;23.97;;;18.30;99.90;;;;;;5052746;28;20215;-61
2022/06/24 04:18:36;;;;;;;43.93;22.90;;;18.20;99.90;;;;;;5056379;28;20247;-61
2022/06/24 04:21:12;;;;;;;42.17;20.20;;;18.20;99.90;;;;;;5057093;28;20744;-61
2022/06/24 04:23:42;;;;;;;41.87;19.10;;;18.10;99.90;;;;;;5055617;28;20224;-61
2022/06/24 04:26:11;;;;;;;26.70;16.73;;;18.10;99.90;;;;;;5057489;28;20208;-61
2022/06/24 04:28:40;;;;;;;31.53;17.37;;;18.00;99.90;;;;;;5056938;28;20704;-61
2022/06/24 04:31:09;;;;;;;32.33;18.03;;;18.00;99.90;;;;;;5056940;28;20205;-61
2022/06/24 04:33:37;;;;;;;35.53;17.40;;;18.00;99.90;;;;;;5056680;28;20216;-61
2022/06/24 04:36:11;;;;;;;34.73;18.83;;;18.00;99.90;;;;;;5043423;28;20205;-61
2022/06/24 04:38:40;;;;;;;37.53;19.90;;;18.00;99.90;;;;;;5050238;28;20675;-61
2022/06/24 04:41:13;;;;;;;41.07;21.30;;;18.00;99.90;;;;;;5049597;28;20197;-61
2022/06/24 04:43:41;;;;;;;39.80;22.40;;;18.00;99.90;;;;;;5041547;28;20217;-61
2022/06/24 04:46:10;;;;;;;43.90;24.90;;;18.00;99.90;;;;;;5051046;28;20204;-61
2022/06/24 04:48:38;;;;;;;43.33;24.80;;;18.00;99.90;;;;;;5055371;28;20232;-61
2022/06/24 04:51:13;;;;;;;53.03;28.67;;;18.00;99.90;;;;;;5049202;28;20211;-61
2022/06/24 04:53:41;;;;;;;59.03;31.80;;;18.00;99.90;;;;;;5038847;28;20677;-61
2022/06/24 04:56:10;;;;;;;61.23;31.50;;;18.00;99.90;;;;;;5054130;28;20205;-61
2022/06/24 04:58:38;;;;;;;52.83;31.47;;;18.00;99.90;;;;;;5055676;28;20220;-61
2022/06/24 05:01:06;;;;;;;61.07;33.37;;;18.10;99.90;;;;;;5056059;28;20273;-61
2022/06/24 05:03:35;;;;;;;64.67;34.43;;;18.10;99.90;;;;;;5061208;28;20196;-61
2022/06/24 05:06:03;;;;;;;59.97;34.40;;;18.10;99.90;;;;;;5067066;28;20201;-61
2022/06/24 05:08:33;;;;;;;60.53;33.73;;;18.10;99.90;;;;;;5054381;28;20692;-61
2022/06/24 05:11:02;;;;;;;61.63;33.53;;;18.10;99.90;;;;;;5054914;28;20211;-61
2022/06/24 05:13:30;;;;;;;53.77;31.80;;;18.20;99.90;;;;;;5056568;28;20243;-61
2022/06/24 05:15:58;;;;;;;70.00;36.70;;;18.20;99.90;;;;;;5055709;28;20549;-61
2022/06/24 05:18:47;;;;;;;59.27;34.10;;;18.20;99.90;;;;;;5053845;28;20259;-62
2022/06/24 05:21:15;;;;;;;63.83;36.20;;;18.30;99.90;;;;;;5056127;28;20205;-62
2022/06/24 05:23:47;;;;;;;65.10;34.83;;;18.30;99.90;;;;;;5055633;28;20248;-62
2022/06/24 05:26:15;;;;;;;68.17;35.47;;;18.30;99.90;;;;;;5056045;28;20200;-61
2022/06/24 05:28:44;;;;;;;65.10;34.70;;;18.30;99.90;;;;;;5054209;28;20225;-61
2022/06/24 05:31:12;;;;;;;62.60;34.90;;;18.40;99.90;;;;;;5055973;28;20209;-61
2022/06/24 05:33:41;;;;;;;61.20;33.90;;;18.40;99.90;;;;;;5060437;28;20736;-61
2022/06/24 05:36:09;;;;;;;62.37;33.77;;;18.40;99.90;;;;;;5055802;28;20280;-61
2022/06/24 05:38:38;;;;;;;56.03;32.87;;;18.50;99.90;;;;;;5055183;28;20821;-62
2022/06/24 05:41:14;;;;;;;54.13;32.17;;;18.50;99.90;;;;;;5055325;28;20634;-61
2022/06/24 05:43:44;;;;;;;47.27;29.10;;;18.50;99.90;;;;;;5050180;28;20271;-61
2022/06/24 05:46:12;;;;;;;52.17;30.10;;;18.50;99.90;;;;;;5055582;28;20204;-61
2022/06/24 05:48:42;;;;;;;49.27;27.93;;;18.50;99.90;;;;;;5054923;28;20237;-61
2022/06/24 05:51:11;;;;;;;47.67;26.37;;;18.50;99.90;;;;;;5055894;28;20315;-62
2022/06/24 05:56:28;;;;;;;39.27;25.20;;;18.50;99.90;;;;;;5055620;28;20201;-62
2022/06/24 05:58:57;;;;;;;35.97;22.80;;;18.50;99.90;;;;;;5055265;28;20217;-62
2022/06/24 06:01:26;;;;;;;34.93;23.10;;;18.50;99.90;;;;;;5055504;28;20541;-61
2022/06/24 06:03:54;;;;;;;38.03;23.03;;;18.50;99.90;;;;;;5050365;28;20568;-61
2022/06/24 06:06:23;;;;;;;34.73;21.57;;;18.60;99.90;;;;;;5051199;28;20201;-62
2022/06/24 06:08:51;;;;;;;28.13;18.93;;;18.60;99.90;;;;;;5054954;28;20224;-62
2022/06/24 06:11:21;;;;;;;32.70;20.53;;;18.60;99.90;;;;;;5054506;28;20204;-62
2022/06/24 06:13:53;;;;;;;27.23;19.30;;;18.70;99.90;;;;;;5054358;28;20615;-62
2022/06/24 06:16:22;;;;;;;25.77;18.53;;;18.70;99.90;;;;;;5054251;28;20246;-62
2022/06/24 06:18:51;;;;;;;27.63;17.97;;;18.70;99.90;;;;;;5054971;28;20873;-62
2022/06/24 06:21:21;;;;;;;26.30;17.87;;;18.70;99.90;;;;;;5044710;28;20679;-62
2022/06/24 06:24:30;;;;;;;24.37;16.30;;;18.70;99.90;;;;;;5047865;28;20201;-62
2022/06/24 06:27:39;;;;;;;22.40;16.33;;;18.80;99.90;;;;;;5053752;28;20205;-62
2022/06/24 06:30:10;;;;;;;27.20;16.03;;;18.80;99.90;;;;;;5054330;28;20292;-62
2022/06/24 06:33:19;;;;;;;25.33;15.67;;;19.00;99.90;;;;;;5052903;28;20535;-62
2022/06/24 06:36:28;;;;;;;24.87;16.83;;;19.20;99.90;;;;;;5052390;28;20204;-62
2022/06/24 06:39:37;;;;;;;26.83;17.13;;;19.40;99.90;;;;;;5051546;28;20204;-62
2022/06/24 06:42:46;;;;;;;25.33;15.90;;;19.70;99.90;;;;;;5051087;28;20215;-62
2022/06/24 06:45:16;;;;;;;23.70;15.43;;;19.90;99.90;;;;;;5052600;28;20189;-62
2022/06/24 06:47:44;;;;;;;15.97;12.30;;;20.10;99.90;;;;;;5047850;28;20596;-62
2022/06/24 06:50:13;;;;;;;12.90;9.63;;;20.30;99.90;;;;;;5053106;28;20599;-62
2022/06/24 06:52:41;;;;;;;11.30;8.60;;;20.50;99.90;;;;;;5049933;28;20200;-62
2022/06/24 06:55:10;;;;;;;10.37;8.53;;;20.60;99.90;;;;;;5049970;28;20216;-62
2022/06/24 06:57:39;;;;;;;10.43;7.93;;;20.60;99.90;;;;;;5052144;28;20246;-63
2022/06/24 07:00:09;;;;;;;9.70;7.67;;;20.60;99.90;;;;;;5052702;28;20212;-62
2022/06/24 07:02:39;;;;;;;11.17;7.10;;;20.60;99.90;;;;;;5045389;28;20197;-62
2022/06/24 07:05:14;;;;;;;10.10;7.23;;;20.60;99.90;;;;;;5049668;28;20276;-63
2022/06/24 07:07:43;;;;;;;9.67;7.10;;;20.60;99.90;;;;;;5044745;28;20276;-62
2022/06/24 07:10:11;;;;;;;9.00;7.43;;;20.50;99.90;;;;;;5051317;28;20193;-63
2022/06/24 07:12:40;;;;;;;10.33;8.30;;;20.40;99.90;;;;;;5048206;28;20248;-63
2022/06/24 07:15:11;;;;;;;8.00;7.10;;;20.40;99.90;;;;;;5050472;28;20694;-62
2022/06/24 07:17:41;;;;;;;7.43;6.73;;;20.30;99.90;;;;;;5051799;28;20193;-62
2022/06/24 07:20:11;;;;;;;6.50;6.10;;;20.20;99.90;;;;;;5083899;28;20197;-63
2022/06/24 07:22:40;;;;;;;7.50;6.30;;;20.20;99.90;;;;;;5049232;28;20201;-63
2022/06/24 07:25:09;;;;;;;6.40;5.90;;;20.10;99.90;;;;;;5082653;28;20271;-62
2022/06/24 07:27:38;;;;;;;8.07;6.37;;;20.10;99.90;;;;;;5046412;28;20584;-62
2022/06/24 07:30:08;;;;;;;7.10;6.40;;;20.10;99.90;;;;;;5055259;28;20216;-62
2022/06/24 07:32:39;;;;;;;7.57;6.40;;;20.10;99.90;;;;;;5051295;28;20273;-62
2022/06/24 07:35:10;;;;;;;7.23;6.53;;;20.20;99.90;;;;;;5047742;28;20204;-62
2022/06/24 07:37:58;;;;;;;6.80;6.20;;;20.20;99.90;;;;;;5050992;28;20260;-62
2022/06/24 07:40:26;;;;;;;6.07;5.47;;;20.20;99.90;;;;;;5043419;28;20247;-62
2022/06/24 07:42:55;;;;;;;5.93;5.30;;;20.10;99.90;;;;;;5045595;28;20204;-62
2022/06/24 07:45:23;;;;;;;8.03;5.40;;;20.00;99.90;;;;;;5048956;28;20200;-62
2022/06/24 07:47:52;;;;;;;4.37;3.83;;;19.90;99.90;;;;;;5048965;28;20260;-62
2022/06/24 07:50:22;;;;;;;2.13;1.63;;;19.70;99.90;;;;;;5048600;28;20231;-62
2022/06/24 07:52:51;;;;;;;2.20;1.57;;;19.40;99.90;;;;;;5048455;28;20227;-61
2022/06/24 07:58:06;;;;;;;1.63;1.53;;;18.60;99.90;;;;;;5084973;28;20280;-61
2022/06/24 08:00:35;;;;;;;4.07;1.43;;;18.30;99.90;;;;;;5051769;28;20216;-60
2022/06/24 08:03:03;;;;;;;1.63;1.10;;;18.00;99.90;;;;;;5044455;28;20197;-61
2022/06/24 08:05:33;;;;;;;1.40;1.30;;;17.80;99.90;;;;;;5051495;28;20242;-62
2022/06/24 08:08:01;;;;;;;2.53;1.40;;;17.50;99.90;;;;;;5048835;28;20278;-61
2022/06/24 08:10:30;;;;;;;3.33;1.37;;;17.40;99.90;;;;;;5073275;28;20218;-62
2022/06/24 08:12:58;;;;;;;3.23;1.27;;;17.40;99.90;;;;;;5052111;28;20222;-62
2022/06/24 08:15:27;;;;;;;3.50;1.23;;;17.40;99.90;;;;;;5051088;28;20598;-62
2022/06/24 08:17:55;;;;;;;1.17;1.10;;;17.40;99.90;;;;;;5052090;28;20279;-62
2022/06/24 08:20:24;;;;;;;1.50;1.33;;;17.30;99.90;;;;;;5051548;28;20246;-62
2022/06/24 08:22:54;;;;;;;1.43;1.33;;;17.30;99.90;;;;;;5052416;28;20557;-62
2022/06/24 08:25:22;;;;;;;3.20;1.50;;;17.30;99.90;;;;;;5052347;28;20587;-62
2022/06/24 08:27:52;;;;;;;1.50;1.40;;;17.30;99.90;;;;;;5051835;28;20196;-62
2022/06/24 08:31:01;;;;;;;1.50;1.40;;;17.30;99.90;;;;;;5033576;28;20207;-62
2022/06/24 08:33:34;;;;;;;1.93;1.80;;;17.30;99.90;;;;;;5083841;28;20198;-62
2022/06/24 08:36:03;;;;;;;2.90;1.90;;;17.40;99.90;;;;;;5051962;28;20301;-62
2022/06/24 08:38:35;;;;;;;2.40;2.20;;;17.40;99.90;;;;;;5046403;28;20193;-62
2022/06/24 08:41:04;;;;;;;2.83;2.53;;;17.50;99.90;;;;;;5051469;28;20229;-63
2022/06/24 08:43:34;;;;;;;2.90;2.70;;;17.50;99.90;;;;;;5051306;28;20307;-63
2022/06/24 08:46:04;;;;;;;3.07;2.93;;;17.50;99.90;;;;;;5079874;28;20201;-63
2022/06/24 08:48:38;;;;;;;3.40;3.20;;;17.40;99.90;;;;;;5052599;28;21505;-62
2022/06/24 08:51:07;;;;;;;9.17;3.80;;;17.40;99.90;;;;;;5048696;28;20666;-62
2022/06/24 08:53:38;;;;;;;4.87;4.07;;;17.50;99.90;;;;;;5048433;28;20197;-63
2022/06/24 08:56:11;;;;;;;5.40;4.20;;;17.60;99.90;;;;;;5050681;28;20217;-63
2022/06/24 08:58:41;;;;;;;4.93;3.90;;;17.60;99.90;;;;;;5048705;28;20792;-62
2022/06/24 09:01:15;;;;;;;4.43;4.03;;;17.60;99.90;;;;;;5051798;28;20593;-63
2022/06/24 09:03:45;;;;;;;7.50;4.20;;;17.70;99.90;;;;;;5054081;28;20188;-62
2022/06/24 09:06:14;;;;;;;5.47;4.60;;;17.70;99.90;;;;;;5055947;28;20248;-62
2022/06/24 09:08:50;;;;;;;5.87;4.63;;;17.80;99.90;;;;;;5055333;28;20203;-62
2022/06/24 09:11:19;;;;;;;5.10;4.70;;;17.80;99.90;;;;;;5055191;28;20211;-62
2022/06/24 09:13:49;;;;;;;6.43;4.87;;;17.80;99.90;;;;;;5067094;28;20640;-62
2022/06/24 09:16:21;;;;;;;7.77;4.70;;;17.90;99.90;;;;;;5054667;28;20300;-62
2022/06/24 09:18:53;;;;;;;5.50;4.93;;;17.90;99.90;;;;;;5054270;28;20200;-62
2022/06/24 09:21:23;;;;;;;6.23;5.63;;;18.10;99.90;;;;;;5083115;28;20704;-62
2022/06/24 09:23:55;;;;;;;6.43;5.77;;;18.30;99.90;;;;;;5048091;28;20232;-63
2022/06/24 09:26:31;;;;;;;5.93;5.33;;;18.70;99.90;;;;;;5052949;28;20189;-63
2022/06/24 09:29:00;;;;;;;13.53;5.73;;;18.90;99.90;;;;;;5052945;28;20201;-63
2022/06/24 09:31:31;;;;;;;6.20;5.70;;;19.30;99.90;;;;;;5047918;28;20189;-63
2022/06/24 09:34:08;;;;;;;6.50;5.87;;;19.40;99.90;;;;;;5050186;28;20208;-63
2022/06/24 09:36:38;;;;;;;7.77;5.63;;;19.50;99.90;;;;;;5053886;28;20208;-64
2022/06/24 09:39:11;;;;;;;6.27;5.67;;;19.50;99.90;;;;;;5047186;28;20197;-63
2022/06/24 09:41:50;;;;;;;6.53;5.87;;;19.70;99.90;;;;;;5052095;28;20239;-63
2022/06/24 09:44:19;;;;;;;5.90;5.50;;;20.10;99.90;;;;;;5047099;28;20197;-64
2022/06/24 09:46:49;;;;;;;5.70;5.27;;;20.20;99.90;;;;;;5052023;28;20205;-63
2022/06/24 09:49:18;;;;;;;4.87;4.57;;;20.20;99.90;;;;;;5055898;28;20189;-64
2022/06/24 09:51:47;;;;;;;5.40;5.03;;;20.30;99.90;;;;;;5054159;28;20220;-63
2022/06/24 09:54:18;;;;;;;5.13;4.70;;;20.30;99.90;;;;;;5051888;28;20201;-63
2022/06/24 09:56:48;;;;;;;4.83;4.60;;;20.30;99.90;;;;;;5054051;28;20300;-64
2022/06/24 10:02:16;;;;;;;4.10;3.90;;;20.70;99.90;;;;;;5058596;28;20385;-63
2022/06/24 10:04:52;;;;;;;3.83;3.63;;;20.70;99.90;;;;;;5085054;28;20652;-63
2022/06/24 10:07:24;;;;;;;5.43;3.40;;;20.90;99.90;;;;;;5051605;28;20220;-63
2022/06/24 10:10:04;;;;;;;4.87;3.47;;;20.80;99.90;;;;;;5047930;28;20283;-63
2022/06/24 10:12:39;;;;;;;3.70;3.50;;;20.50;99.90;;;;;;5068512;28;20254;-63
2022/06/24 10:15:09;;;;;;;4.00;3.80;;;20.10;99.90;;;;;;5051552;28;20287;-63
2022/06/24 10:17:38;;;;;;;3.97;3.77;;;20.10;99.90;;;;;;5049135;28;20204;-63
2022/06/24 10:20:09;;;;;;;4.40;4.00;;;19.90;99.90;;;;;;5053500;28;20197;-62
2022/06/24 10:22:38;;;;;;;4.20;4.00;;;20.10;99.90;;;;;;5067527;28;20644;-62
2022/06/24 10:25:08;;;;;;;4.20;4.00;;;20.40;99.90;;;;;;5050923;28;20644;-63
2022/06/24 10:28:06;;;;;;;4.80;4.30;;;20.60;99.90;;;;;;5050245;28;20260;-63
2022/06/24 10:30:59;;;;;;;4.10;3.90;;;21.00;99.90;;;;;;5046962;28;20291;-63
2022/06/24 10:33:30;;;;;;;4.60;4.30;;;21.20;99.90;;;;;;5036792;28;20619;-63
2022/06/24 10:36:00;;;;;;;5.20;4.80;;;21.10;99.90;;;;;;5051129;28;20280;-63
2022/06/24 10:38:37;;;;;;;5.23;4.93;;;21.20;99.90;;;;;;5042282;28;20193;-63
2022/06/24 10:41:11;;;;;;;6.03;5.47;;;21.50;99.90;;;;;;5052634;28;20193;-63
2022/06/24 10:43:42;;;;;;;7.03;6.30;;;21.90;99.90;;;;;;5051406;28;20198;-63
2022/06/24 10:46:20;;;;;;;6.00;5.50;;;22.20;99.90;;;;;;5046509;28;20214;-62
2022/06/24 10:48:59;;;;;;;6.70;6.10;;;22.40;99.90;;;;;;5049186;28;20306;-62
2022/06/24 10:51:31;;;;;;;7.27;6.70;;;22.60;99.90;;;;;;5044715;28;20260;-63
2022/06/24 10:54:14;;;;;;;8.27;7.50;;;23.00;99.90;;;;;;5042151;28;20194;-63
2022/06/24 10:56:46;;;;;;;8.53;7.80;;;23.00;99.90;;;;;;5046528;28;20238;-63
2022/06/24 10:59:16;;;;;;;8.80;8.00;;;23.20;99.90;;;;;;5043709;28;20882;-63
2022/06/24 11:01:45;;;;;;;8.43;7.63;;;23.30;99.90;;;;;;5045120;28;20225;-63
2022/06/24 11:04:22;;;;;;;8.17;7.53;;;23.50;99.90;;;;;;5030985;28;20661;-64
2022/06/24 11:07:11;;;;;;;8.70;7.90;;;23.80;99.90;;;;;;5039883;28;20206;-63
2022/06/24 11:09:40;;;;;;;7.70;7.00;;;23.80;99.90;;;;;;5046810;28;20196;-63
2022/06/24 11:12:29;;;;;;;8.67;7.50;;;24.00;99.90;;;;;;5051017;28;20280;-63
2022/06/24 11:14:58;;;;;;;8.73;6.73;;;24.00;99.90;;;;;;5050384;28;20605;-63
2022/06/24 11:17:28;;;;;;;6.70;6.10;;;24.10;99.90;;;;;;5050516;28;20296;-63
2022/06/24 11:19:56;;;;;;;5.87;5.40;;;24.30;99.90;;;;;;5071320;28;20198;-63
2022/06/24 11:22:29;;;;;;;6.77;6.23;;;24.60;99.90;;;;;;5047553;28;20681;-63
2022/06/24 11:25:01;;;;;;;7.60;6.90;;;24.40;99.90;;;;;;5047118;28;21097;-63
2022/06/24 11:27:36;;;;;;;7.23;6.63;;;24.50;99.90;;;;;;5042821;28;20212;-62
2022/06/24 11:30:06;;;;;;;5.60;5.20;;;24.60;99.90;;;;;;5050150;28;20278;-63
2022/06/24 11:32:54;;;;;;;6.73;6.23;;;24.70;99.90;;;;;;5049927;28;20276;-62
2022/06/24 11:35:24;;;;;;;4.30;4.10;;;24.50;99.90;;;;;;5048359;28;20212;-63
2022/06/24 11:37:56;;;;;;;3.40;2.93;;;24.60;99.90;;;;;;5045309;28;20214;-63
2022/06/24 11:40:26;;;;;;;3.80;3.20;;;24.80;99.90;;;;;;5042792;28;20200;-62
2022/06/24 11:42:56;;;;;;;2.90;2.70;;;24.50;99.90;;;;;;5045895;28;20861;-62
2022/06/24 11:45:35;;;;;;;2.90;2.80;;;24.50;99.90;;;;;;5038771;28;20217;-62
2022/06/24 11:48:06;;;;;;;4.00;3.70;;;24.70;99.90;;;;;;5043031;28;20239;-63
2022/06/24 11:50:35;;;;;;;3.50;3.20;;;24.90;99.90;;;;;;5045871;28;20259;-63
2022/06/24 11:53:04;;;;;;;3.30;3.10;;;24.80;99.90;;;;;;5043331;28;20291;-62
2022/06/24 11:55:41;;;;;;;2.13;2.07;;;24.90;99.90;;;;;;5045890;28;20936;-62
2022/06/24 11:58:12;;;;;;;2.30;2.20;;;25.00;99.90;;;;;;5046963;28;20209;-62
2022/06/24 12:00:41;;;;;;;2.37;2.27;;;25.20;99.90;;;;;;5048047;28;20237;-62
2022/06/24 12:03:11;;;;;;;3.33;1.90;;;25.30;99.90;;;;;;5048712;28;20280;-62
2022/06/24 12:05:42;;;;;;;2.20;2.10;;;25.20;99.90;;;;;;5048376;28;20271;-62
2022/06/24 12:08:12;;;;;;;2.20;2.10;;;24.80;99.90;;;;;;5048775;28;20275;-62
2022/06/24 12:10:51;;;;;;;2.40;2.20;;;24.50;99.90;;;;;;5047765;28;20209;-62
2022/06/24 12:13:29;;;;;;;1.80;1.73;;;24.30;99.90;;;;;;5048867;28;20217;-62
2022/06/24 12:15:58;;;;;;;2.07;1.97;;;24.10;99.90;;;;;;5039498;28;20542;-61
2022/06/24 12:18:30;;;;;;;1.80;1.80;;;24.00;99.90;;;;;;5045956;28;20289;-62
2022/06/24 12:21:00;;;;;;;1.70;1.70;;;24.00;99.90;;;;;;5048966;28;20674;-62
2022/06/24 12:23:35;;;;;;;1.97;1.87;;;24.00;99.90;;;;;;5041207;28;20199;-62
2022/06/24 12:26:13;;;;;;;1.77;1.77;;;24.10;99.90;;;;;;5043586;28;20277;-62
2022/06/24 12:28:44;;;;;;;2.10;1.93;;;24.30;99.90;;;;;;5038865;28;20195;-62
2022/06/24 12:31:14;;;;;;;2.10;2.00;;;24.40;99.90;;;;;;5043557;28;20271;-62
2022/06/24 12:33:54;;;;;;;2.70;1.70;;;24.40;99.90;;;;;;5041042;28;20844;-62
2022/06/24 12:36:24;;;;;;;1.90;1.80;;;24.60;99.90;;;;;;5045527;28;20279;-62
2022/06/24 12:39:02;;;;;;;2.00;1.90;;;25.00;99.90;;;;;;5048354;28;20225;-62
2022/06/24 12:41:30;;;;;;;1.60;1.60;;;25.10;99.90;;;;;;5078560;28;20739;-61
2022/06/24 12:44:01;;;;;;;1.50;1.50;;;25.20;99.90;;;;;;5049397;28;20230;-62
2022/06/24 12:50:34;;;;;;;1.70;1.70;;;25.20;99.90;;;;;;5044883;28;20215;-62
2022/06/24 12:52:35;;;;;;;1.60;1.50;;;25.00;99.90;;;;;;5042147;28;20289;-62
2022/06/24 12:55:07;;;;;;;1.40;1.40;;;25.30;99.90;;;;;;5060916;28;20204;-62
2022/06/24 12:57:36;;;;;;;1.40;1.40;;;25.60;99.90;;;;;;5047144;28;20971;-62
2022/06/24 13:00:08;;;;;;;1.60;1.50;;;25.70;99.90;;;;;;5048366;28;20284;-62
2022/06/24 13:02:37;;;;;;;1.40;1.40;;;25.30;99.90;;;;;;5045805;28;20214;-61
2022/06/24 13:05:07;;;;;;;1.60;1.50;;;25.10;99.90;;;;;;5048734;28;20641;-62
2022/06/24 13:07:37;;;;;;;1.50;1.40;;;25.10;99.90;;;;;;5049454;28;20210;-62
2022/06/24 13:10:07;;;;;;;1.70;1.60;;;25.20;99.90;;;;;;5046206;28;20295;-62
2022/06/24 13:12:38;;;;;;;2.23;1.50;;;25.20;99.90;;;;;;5045159;28;20265;-62
2022/06/24 13:15:10;;;;;;;2.63;1.80;;;25.10;99.90;;;;;;5048145;28;20207;-62
2022/06/24 13:17:40;;;;;;;1.80;1.70;;;24.90;99.90;;;;;;5047349;28;20686;-62
2022/06/24 13:20:12;;;;;;;1.80;1.70;;;24.90;99.90;;;;;;5046609;28;20284;-62
2022/06/24 13:22:42;;;;;;;2.20;1.60;;;24.70;99.90;;;;;;5043404;28;20206;-62
2022/06/24 13:25:11;;;;;;;2.00;1.90;;;24.70;99.90;;;;;;5049870;28;20202;-62
2022/06/24 13:27:41;;;;;;;2.00;2.00;;;24.50;99.90;;;;;;5051835;28;20197;-62